createdAt,value
2017-12-10T00:03:16.943Z,2.17
2017-12-10T00:13:16.921Z,2.1
2017-12-10T00:23:16.944Z,2.15
2017-12-10T00:33:16.882Z,2.01
2017-12-10T00:43:16.958Z,2.02
2017-12-10T00:53:16.960Z,2.04
2017-12-10T01:03:17.010Z,2.1
2017-12-10T01:13:16.952Z,2.1
2017-12-10T01:23:16.914Z,2.15
2017-12-10T01:33:16.972Z,2.19
2017-12-10T01:43:17.022Z,2.19
2017-12-10T01:53:17.011Z,2.26
2017-12-10T02:03:16.934Z,2.15
2017-12-10T02:13:17.020Z,2.35
2017-12-10T02:23:16.984Z,2.08
2017-12-10T02:33:17.062Z,2.23
2017-12-10T02:43:17.019Z,2.23
2017-12-10T02:53:17.103Z,2.27
2017-12-10T03:03:17.012Z,2.31
2017-12-10T03:13:17.078Z,2.17
2017-12-10T03:23:17.051Z,2.37
2017-12-10T03:33:16.985Z,2.37
2017-12-10T03:43:17.086Z,2.44
2017-12-10T03:53:17.033Z,2.48
2017-12-10T04:03:17.091Z,2.52
2017-12-10T04:13:17.024Z,2.45
2017-12-10T04:23:17.100Z,2.63
2017-12-10T04:33:17.084Z,2.49
2017-12-10T04:43:17.129Z,2.46
2017-12-10T04:53:17.089Z,2.34
2017-12-10T05:03:17.081Z,2.27
2017-12-10T05:13:17.108Z,2.2
2017-12-10T05:23:17.092Z,2.17
2017-12-10T05:33:17.166Z,2.09
2017-12-10T05:43:17.113Z,1.97
2017-12-10T05:53:17.173Z,2.08
2017-12-10T06:03:17.107Z,2.09
2017-12-10T06:13:17.198Z,2.16
2017-12-10T06:23:17.129Z,2.16
2017-12-10T06:33:17.206Z,2.1
2017-12-10T06:43:17.233Z,2.13
2017-12-10T06:53:17.134Z,2.12
2017-12-10T07:03:17.198Z,2.06
2017-12-10T07:13:17.257Z,2.06
2017-12-10T07:23:17.210Z,2.16
2017-12-10T07:33:17.184Z,2.15
2017-12-10T07:43:17.231Z,2.08
2017-12-10T07:53:17.225Z,2.08
2017-12-10T08:03:17.308Z,2.19
2017-12-10T08:13:17.341Z,2.23
2017-12-10T08:23:17.339Z,2.3
2017-12-10T08:33:17.304Z,2.26
2017-12-10T08:43:17.341Z,2.34
2017-12-10T08:53:17.296Z,2.44
2017-12-10T09:03:17.352Z,2.45
2017-12-10T09:13:17.475Z,2.59
2017-12-10T09:23:17.307Z,2.56
2017-12-10T09:33:17.346Z,2.63
2017-12-10T09:43:17.289Z,2.79
2017-12-10T09:53:17.395Z,2.74
2017-12-10T10:03:17.316Z,2.73
2017-12-10T10:13:17.350Z,2.74
2017-12-10T10:23:17.348Z,2.7
2017-12-10T10:33:17.321Z,2.87
2017-12-10T10:43:17.375Z,2.85
2017-12-10T10:53:17.334Z,3.03
2017-12-10T11:03:34.311Z,3
2017-12-10T11:13:47.222Z,3.03
2017-12-10T11:23:17.356Z,3.02
2017-12-10T11:33:17.451Z,2.85
2017-12-10T11:43:17.420Z,2.92
2017-12-10T11:53:17.381Z,3.02
2017-12-10T12:03:17.493Z,2.77
2017-12-10T12:13:17.406Z,2.2
2017-12-10T12:23:17.376Z,2.01
2017-12-10T12:33:17.446Z,1.8
2017-12-10T12:43:17.421Z,1.78
2017-12-10T12:53:17.472Z,1.62
2017-12-10T13:03:17.529Z,1.57
2017-12-10T13:13:17.504Z,1.58
2017-12-10T13:23:17.585Z,1.5
2017-12-10T13:33:17.608Z,1.51
2017-12-10T13:43:18.286Z,1.51
2017-12-10T13:53:17.915Z,1.46
2017-12-10T14:03:17.655Z,1.44
2017-12-10T14:13:17.696Z,1.34
2017-12-10T14:23:17.972Z,1.25
2017-12-10T14:33:17.553Z,1.19
2017-12-10T14:43:17.769Z,1.36
2017-12-10T14:53:17.652Z,1.29
2017-12-10T15:03:17.715Z,1.18
2017-12-10T15:13:17.512Z,1.07
2017-12-10T15:23:17.733Z,1.16
2017-12-10T15:33:18.295Z,1.18
2017-12-10T15:43:17.885Z,1.08
2017-12-10T15:53:17.750Z,1.12
2017-12-10T16:03:17.707Z,1.24
2017-12-10T16:13:17.793Z,1.19
2017-12-10T16:23:17.727Z,1.39
2017-12-10T16:33:17.653Z,1.28
2017-12-10T16:43:17.687Z,1.4
2017-12-10T16:53:18.024Z,1.58
2017-12-10T17:03:17.702Z,1.62
2017-12-10T17:13:17.631Z,1.73
2017-12-10T17:23:17.786Z,1.75
2017-12-10T17:33:17.833Z,1.73
2017-12-10T17:43:18.094Z,2.02
2017-12-10T17:53:18.046Z,2.13
2017-12-10T18:03:18.313Z,2.49
2017-12-10T18:13:19.770Z,2.67
2017-12-10T18:23:17.998Z,3.36
2017-12-10T18:33:18.186Z,3.82
2017-12-10T18:43:18.122Z,4.46
2017-12-10T18:53:17.984Z,4.89
2017-12-10T19:03:18.525Z,4.86
2017-12-10T19:13:18.462Z,4.94
2017-12-10T19:23:17.724Z,4.99
2017-12-10T19:33:18.483Z,4.98
2017-12-10T19:43:18.339Z,5.09
2017-12-10T19:53:18.021Z,5.28
2017-12-10T20:03:18.721Z,5.52
2017-12-10T20:13:18.789Z,5.27
2017-12-10T20:23:18.051Z,5.31
2017-12-10T20:33:18.042Z,5.23
2017-12-10T20:43:19.180Z,5.2
2017-12-10T20:53:18.355Z,5.17
2017-12-10T21:03:18.036Z,5.01
2017-12-10T21:13:17.793Z,5.04
2017-12-10T21:23:18.064Z,4.92
2017-12-10T21:33:17.872Z,4.75
2017-12-10T21:43:17.870Z,4.69
2017-12-10T21:53:17.885Z,4.64
2017-12-10T22:03:18.683Z,4.5
2017-12-10T22:13:17.876Z,4.32
2017-12-10T22:23:17.913Z,3.72
2017-12-10T22:33:17.897Z,3.3
2017-12-10T22:43:18.078Z,3.06
2017-12-10T22:53:17.963Z,2.94
2017-12-10T23:03:18.034Z,2.7
2017-12-10T23:13:17.950Z,2.66
2017-12-10T23:23:17.888Z,2.66
2017-12-10T23:33:17.974Z,2.45
2017-12-10T23:43:17.914Z,2.45
2017-12-10T23:53:18.041Z,2.55
